MDSTTNCM

Guest
Details From MDST - Santiago Cibao Intl
To TNCM - St Maarten - Princess Juliana Intl
Flight Number -
Tags generated
Created
Modified
Stats Distance 441 nm / 817 km
Max Altitude 23,100 ft / 7,041 m
Waypoints 4
Social Downloads 0
Likes 0
Share VATSIM

Download

Looking for another format? Having issues loading an existing format? Contact us
Advertisement - Login to hide

Notes

Basic altitude profile: - Ascent Rate: 2400ft/min - Ascent Speed: 280kts - Cruise Altitude: 32000ft - Cruise Speed: 470kts - Descent Rate: 1800ft/min - Descent Speed: 275kts Options: - Use NATs: yes - Use PACOTS: yes - Use low airways: no - Use high airways: no

Route

MDST 1900N07000W 1800N06500W TNCM

ID Type Via Altitude Latitude Longitude Leg Dist Tot Dist Heading (true) Name
O MDST APT - 0 ft / 0 m 19.40609˚ -70.60469˚ - 0 nm - Santiago Cibao Intl
1900N07000W LATLON - 15,000 ft / 4,572 m 19.00000˚ -70.00000˚ 42 nm 42 nm 125° / 126° -
1800N06500W LATLON - 23,100 ft / 7,041 m 18.00000˚ -65.00000˚ 291 nm 333 nm 101° / 103° -
O TNCM APT - 0 ft / 0 m 18.04089˚ -63.10897˚ 108 nm 441 nm 88° / 89° St Maarten - Princess Juliana Intl

Altitude Profile

Advertisement - Login to hide

Weather


0- 5 10 15 20 25 30 35+ Temperature / ° C

Clouds and Precipitation
Forecast for 2018-06-24 00:00 UTC. Updated 4 hours ago

Ground ~20,000 ft ~40,000 ft Winds

MDST

Details ICAO MDST (STI)
Name Santiago Cibao Intl
Region Dominican Republic
Timezone America/Santo_Domingo (UTC-4.0)
Stats Elevation 563 ft / 172 m (AMSL)
Location 19.406091° -70.604689°
Runways 1
Magnetic Variation 11.209° W

METAR

MDST 240100Z VRB03KT 9999 FEW016CB SCT016 SCT070 22/22 Q1016 CB/NE

Decode

TAF

TAF MDST 231600Z 2318/2418 12015KT 9999 SCT022 SCT070 PROB30 2318/2400 7000 TSRA FEW016CB BKN018 BKN070

Decode

Departure Runways

ID Width Length Bearing (true) Bearing (mag) Surface Threshold Offset Overrun Length
11 148 ft / 45 m 8,619 ft / 2,627 m 103.07° 114.28° Asphalt 0 ft / 0 m 200 ft / 61 m
29 148 ft / 45 m 8,619 ft / 2,627 m 283.08° 294.29° Asphalt 0 ft / 0 m 200 ft / 61 m

TNCM

Details ICAO TNCM (SXM)
Name St Maarten - Princess Juliana Intl
Region Caribbean Netherlands, Aruba, Curaçao, Sint Maarten
Timezone Unknown (UTC+0.0)
Stats Elevation 12 ft / 4 m (AMSL)
Location 18.040889° -63.108974°
Runways 1
Magnetic Variation 14.339° W

METAR

TNCM 240100Z 09014KT 070V130 9999 SCT018 27/22 Q1019 A3010 NOSIG RMK HZ ALQDS

Decode

TAF

TNCM 232321Z 2400/2424 09013KT P6SM -SHRA BKN018 OVC035 FM241400 09014KT P6SM FEW020

Decode

Destination Runways

ID Width Length Bearing (true) Bearing (mag) Surface Threshold Offset Overrun Length
10 148 ft / 45 m 7,464 ft / 2,275 m 81.43° 95.77° Asphalt 0 ft / 0 m 151 ft / 46 m
28 148 ft / 45 m 7,464 ft / 2,275 m 261.44° 275.78° Asphalt 397 ft / 121 m 0 ft / 0 m

Popular Alternatives